sensor_id;sensor_type;location;lat;lon;timestamp;P1;durP1;ratioP1;P2;durP2;ratioP2
33006;SDS011;19361;51.598;7.650;2024-02-28T00:02:57;40.25;;;21.88;;
33006;SDS011;19361;51.598;7.650;2024-02-28T00:07:58;40.10;;;21.48;;
33006;SDS011;19361;51.598;7.650;2024-02-28T00:12:59;40.05;;;20.65;;
33006;SDS011;19361;51.598;7.650;2024-02-28T00:18:00;38.78;;;21.38;;
33006;SDS011;19361;51.598;7.650;2024-02-28T00:23:00;39.95;;;21.67;;
33006;SDS011;19361;51.598;7.650;2024-02-28T00:28:01;37.88;;;21.45;;
33006;SDS011;19361;51.598;7.650;2024-02-28T00:33:02;37.28;;;20.75;;
33006;SDS011;19361;51.598;7.650;2024-02-28T00:38:02;37.30;;;22.17;;
33006;SDS011;19361;51.598;7.650;2024-02-28T00:43:03;47.40;;;23.20;;
33006;SDS011;19361;51.598;7.650;2024-02-28T00:48:04;39.22;;;21.67;;
33006;SDS011;19361;51.598;7.650;2024-02-28T00:53:05;39.38;;;20.58;;
33006;SDS011;19361;51.598;7.650;2024-02-28T00:58:06;37.80;;;20.50;;
33006;SDS011;19361;51.598;7.650;2024-02-28T01:03:06;43.05;;;22.63;;
33006;SDS011;19361;51.598;7.650;2024-02-28T01:08:09;39.03;;;21.23;;
33006;SDS011;19361;51.598;7.650;2024-02-28T01:13:09;46.05;;;22.67;;
33006;SDS011;19361;51.598;7.650;2024-02-28T01:18:10;42.30;;;23.05;;
33006;SDS011;19361;51.598;7.650;2024-02-28T01:23:10;40.22;;;20.55;;
33006;SDS011;19361;51.598;7.650;2024-02-28T01:28:11;37.72;;;21.55;;
33006;SDS011;19361;51.598;7.650;2024-02-28T01:33:12;40.85;;;22.02;;
33006;SDS011;19361;51.598;7.650;2024-02-28T01:38:13;50.03;;;26.60;;
33006;SDS011;19361;51.598;7.650;2024-02-28T01:43:14;43.00;;;23.42;;
33006;SDS011;19361;51.598;7.650;2024-02-28T01:48:15;57.08;;;26.65;;
33006;SDS011;19361;51.598;7.650;2024-02-28T01:53:16;59.00;;;26.73;;
33006;SDS011;19361;51.598;7.650;2024-02-28T01:58:17;43.40;;;22.65;;
33006;SDS011;19361;51.598;7.650;2024-02-28T02:03:18;46.92;;;23.48;;
33006;SDS011;19361;51.598;7.650;2024-02-28T02:08:19;45.58;;;23.52;;
33006;SDS011;19361;51.598;7.650;2024-02-28T02:13:19;68.47;;;22.73;;
33006;SDS011;19361;51.598;7.650;2024-02-28T02:18:20;95.60;;;23.40;;
33006;SDS011;19361;51.598;7.650;2024-02-28T02:23:21;229.32;;;25.50;;
33006;SDS011;19361;51.598;7.650;2024-02-28T02:28:21;133.73;;;23.27;;
33006;SDS011;19361;51.598;7.650;2024-02-28T02:33:22;237.35;;;26.25;;
33006;SDS011;19361;51.598;7.650;2024-02-28T02:38:22;79.43;;;21.70;;
33006;SDS011;19361;51.598;7.650;2024-02-28T02:43:23;75.38;;;22.98;;
33006;SDS011;19361;51.598;7.650;2024-02-28T02:48:24;41.83;;;22.60;;
33006;SDS011;19361;51.598;7.650;2024-02-28T02:53:24;47.50;;;22.75;;
33006;SDS011;19361;51.598;7.650;2024-02-28T02:58:25;46.10;;;20.48;;
33006;SDS011;19361;51.598;7.650;2024-02-28T03:03:26;84.95;;;23.20;;
33006;SDS011;19361;51.598;7.650;2024-02-28T03:08:26;54.22;;;20.70;;
33006;SDS011;19361;51.598;7.650;2024-02-28T03:13:27;56.15;;;19.90;;
33006;SDS011;19361;51.598;7.650;2024-02-28T03:18:28;43.53;;;21.15;;
33006;SDS011;19361;51.598;7.650;2024-02-28T03:23:29;87.00;;;23.92;;
33006;SDS011;19361;51.598;7.650;2024-02-28T03:28:30;54.83;;;21.38;;
33006;SDS011;19361;51.598;7.650;2024-02-28T03:33:30;57.58;;;22.17;;
33006;SDS011;19361;51.598;7.650;2024-02-28T03:38:32;43.10;;;19.08;;
33006;SDS011;19361;51.598;7.650;2024-02-28T03:43:33;33.72;;;20.58;;
33006;SDS011;19361;51.598;7.650;2024-02-28T03:48:34;44.17;;;22.55;;
33006;SDS011;19361;51.598;7.650;2024-02-28T03:53:35;49.60;;;22.17;;
33006;SDS011;19361;51.598;7.650;2024-02-28T03:58:35;49.67;;;23.65;;
33006;SDS011;19361;51.598;7.650;2024-02-28T04:03:36;44.45;;;22.25;;
33006;SDS011;19361;51.598;7.650;2024-02-28T04:08:37;49.10;;;24.40;;
33006;SDS011;19361;51.598;7.650;2024-02-28T04:13:37;44.58;;;22.55;;
33006;SDS011;19361;51.598;7.650;2024-02-28T04:18:38;56.25;;;27.52;;
33006;SDS011;19361;51.598;7.650;2024-02-28T04:23:39;59.70;;;28.30;;
33006;SDS011;19361;51.598;7.650;2024-02-28T04:28:42;74.70;;;30.15;;
33006;SDS011;19361;51.598;7.650;2024-02-28T04:33:42;76.50;;;31.23;;
33006;SDS011;19361;51.598;7.650;2024-02-28T04:38:43;84.63;;;30.30;;
33006;SDS011;19361;51.598;7.650;2024-02-28T04:43:44;79.88;;;30.88;;
33006;SDS011;19361;51.598;7.650;2024-02-28T04:48:44;82.80;;;31.65;;
33006;SDS011;19361;51.598;7.650;2024-02-28T04:53:45;80.25;;;31.15;;
33006;SDS011;19361;51.598;7.650;2024-02-28T04:58:46;75.95;;;33.15;;
33006;SDS011;19361;51.598;7.650;2024-02-28T05:03:46;71.68;;;31.15;;
33006;SDS011;19361;51.598;7.650;2024-02-28T05:08:47;70.38;;;33.05;;
33006;SDS011;19361;51.598;7.650;2024-02-28T05:13:47;94.47;;;33.45;;
33006;SDS011;19361;51.598;7.650;2024-02-28T05:18:48;100.00;;;33.53;;
33006;SDS011;19361;51.598;7.650;2024-02-28T05:23:49;90.75;;;35.60;;
33006;SDS011;19361;51.598;7.650;2024-02-28T05:28:49;89.70;;;37.30;;
33006;SDS011;19361;51.598;7.650;2024-02-28T05:33:54;87.60;;;37.53;;
33006;SDS011;19361;51.598;7.650;2024-02-28T05:38:59;82.68;;;36.97;;
33006;SDS011;19361;51.598;7.650;2024-02-28T05:44:01;88.82;;;37.83;;
33006;SDS011;19361;51.598;7.650;2024-02-28T05:49:03;77.32;;;38.05;;
33006;SDS011;19361;51.598;7.650;2024-02-28T05:54:04;81.22;;;37.90;;
33006;SDS011;19361;51.598;7.650;2024-02-28T05:59:04;84.28;;;39.58;;
33006;SDS011;19361;51.598;7.650;2024-02-28T06:04:05;88.93;;;40.67;;
33006;SDS011;19361;51.598;7.650;2024-02-28T06:09:06;90.72;;;41.55;;
33006;SDS011;19361;51.598;7.650;2024-02-28T06:14:07;81.43;;;39.03;;
33006;SDS011;19361;51.598;7.650;2024-02-28T06:19:09;70.38;;;35.30;;
33006;SDS011;19361;51.598;7.650;2024-02-28T06:24:09;70.32;;;35.55;;
33006;SDS011;19361;51.598;7.650;2024-02-28T06:29:10;73.00;;;36.80;;
33006;SDS011;19361;51.598;7.650;2024-02-28T06:34:11;76.15;;;37.75;;
33006;SDS011;19361;51.598;7.650;2024-02-28T06:39:12;70.97;;;35.38;;
33006;SDS011;19361;51.598;7.650;2024-02-28T06:44:13;70.32;;;35.08;;
33006;SDS011;19361;51.598;7.650;2024-02-28T06:49:13;66.88;;;34.53;;
33006;SDS011;19361;51.598;7.650;2024-02-28T06:54:14;78.90;;;38.28;;
33006;SDS011;19361;51.598;7.650;2024-02-28T06:59:15;83.05;;;38.42;;
33006;SDS011;19361;51.598;7.650;2024-02-28T07:04:15;65.40;;;32.00;;
33006;SDS011;19361;51.598;7.650;2024-02-28T07:09:17;70.45;;;34.58;;
33006;SDS011;19361;51.598;7.650;2024-02-28T07:14:17;66.57;;;33.67;;
33006;SDS011;19361;51.598;7.650;2024-02-28T07:19:18;71.78;;;33.38;;
33006;SDS011;19361;51.598;7.650;2024-02-28T07:24:19;72.70;;;33.10;;
33006;SDS011;19361;51.598;7.650;2024-02-28T07:29:19;65.32;;;32.15;;
33006;SDS011;19361;51.598;7.650;2024-02-28T07:34:20;70.75;;;32.65;;
33006;SDS011;19361;51.598;7.650;2024-02-28T07:39:21;70.00;;;33.22;;
33006;SDS011;19361;51.598;7.650;2024-02-28T07:44:22;66.10;;;31.48;;
33006;SDS011;19361;51.598;7.650;2024-02-28T07:49:22;72.43;;;34.35;;
33006;SDS011;19361;51.598;7.650;2024-02-28T07:54:23;81.97;;;38.25;;
33006;SDS011;19361;51.598;7.650;2024-02-28T07:59:25;71.22;;;35.17;;
33006;SDS011;19361;51.598;7.650;2024-02-28T08:04:26;71.47;;;35.75;;
33006;SDS011;19361;51.598;7.650;2024-02-28T08:09:26;76.10;;;35.78;;
33006;SDS011;19361;51.598;7.650;2024-02-28T08:14:27;77.43;;;35.63;;
33006;SDS011;19361;51.598;7.650;2024-02-28T08:19:28;72.63;;;36.40;;
33006;SDS011;19361;51.598;7.650;2024-02-28T08:24:29;72.47;;;35.80;;
33006;SDS011;19361;51.598;7.650;2024-02-28T08:29:30;73.65;;;36.20;;
33006;SDS011;19361;51.598;7.650;2024-02-28T08:34:32;86.28;;;40.40;;
33006;SDS011;19361;51.598;7.650;2024-02-28T08:39:33;79.05;;;38.03;;
33006;SDS011;19361;51.598;7.650;2024-02-28T08:44:33;83.20;;;40.72;;
33006;SDS011;19361;51.598;7.650;2024-02-28T08:49:35;82.25;;;41.15;;
33006;SDS011;19361;51.598;7.650;2024-02-28T08:54:35;91.40;;;43.60;;
33006;SDS011;19361;51.598;7.650;2024-02-28T08:59:36;88.65;;;43.22;;
33006;SDS011;19361;51.598;7.650;2024-02-28T09:04:37;91.63;;;44.17;;
33006;SDS011;19361;51.598;7.650;2024-02-28T09:09:41;95.20;;;44.13;;
33006;SDS011;19361;51.598;7.650;2024-02-28T09:14:42;92.82;;;43.70;;
33006;SDS011;19361;51.598;7.650;2024-02-28T09:19:44;93.57;;;43.33;;
33006;SDS011;19361;51.598;7.650;2024-02-28T09:24:45;93.25;;;45.15;;
33006;SDS011;19361;51.598;7.650;2024-02-28T09:29:45;87.90;;;43.10;;
33006;SDS011;19361;51.598;7.650;2024-02-28T09:34:46;96.88;;;46.70;;
33006;SDS011;19361;51.598;7.650;2024-02-28T09:39:47;97.22;;;46.30;;
33006;SDS011;19361;51.598;7.650;2024-02-28T09:44:48;88.43;;;44.72;;
33006;SDS011;19361;51.598;7.650;2024-02-28T09:49:49;96.35;;;45.45;;
33006;SDS011;19361;51.598;7.650;2024-02-28T09:54:52;85.25;;;41.92;;
33006;SDS011;19361;51.598;7.650;2024-02-28T09:59:52;84.18;;;42.13;;
33006;SDS011;19361;51.598;7.650;2024-02-28T10:04:56;80.93;;;42.05;;
33006;SDS011;19361;51.598;7.650;2024-02-28T10:09:58;77.32;;;39.38;;
33006;SDS011;19361;51.598;7.650;2024-02-28T10:15:00;90.82;;;42.67;;
33006;SDS011;19361;51.598;7.650;2024-02-28T10:20:01;76.93;;;38.97;;
33006;SDS011;19361;51.598;7.650;2024-02-28T10:25:04;75.15;;;39.42;;
33006;SDS011;19361;51.598;7.650;2024-02-28T10:30:05;76.18;;;41.08;;
33006;SDS011;19361;51.598;7.650;2024-02-28T10:35:07;84.90;;;42.38;;
33006;SDS011;19361;51.598;7.650;2024-02-28T10:40:08;73.20;;;38.95;;
33006;SDS011;19361;51.598;7.650;2024-02-28T10:45:10;81.55;;;42.15;;
33006;SDS011;19361;51.598;7.650;2024-02-28T10:50:11;77.05;;;40.33;;
33006;SDS011;19361;51.598;7.650;2024-02-28T10:55:12;77.32;;;40.35;;
33006;SDS011;19361;51.598;7.650;2024-02-28T11:00:14;77.15;;;40.38;;
33006;SDS011;19361;51.598;7.650;2024-02-28T11:05:17;72.85;;;39.70;;
33006;SDS011;19361;51.598;7.650;2024-02-28T11:10:18;76.32;;;39.40;;
33006;SDS011;19361;51.598;7.650;2024-02-28T11:15:24;79.22;;;39.83;;
33006;SDS011;19361;51.598;7.650;2024-02-28T11:20:31;77.80;;;40.15;;
33006;SDS011;19361;51.598;7.650;2024-02-28T11:25:32;72.68;;;39.88;;
33006;SDS011;19361;51.598;7.650;2024-02-28T11:30:33;72.90;;;38.38;;
33006;SDS011;19361;51.598;7.650;2024-02-28T11:35:34;67.65;;;37.03;;
33006;SDS011;19361;51.598;7.650;2024-02-28T11:40:35;66.78;;;35.65;;
33006;SDS011;19361;51.598;7.650;2024-02-28T11:45:39;68.15;;;36.65;;
33006;SDS011;19361;51.598;7.650;2024-02-28T11:50:41;67.05;;;35.95;;
33006;SDS011;19361;51.598;7.650;2024-02-28T11:55:42;66.03;;;35.92;;
33006;SDS011;19361;51.598;7.650;2024-02-28T12:00:47;63.95;;;34.80;;
33006;SDS011;19361;51.598;7.650;2024-02-28T12:05:48;67.13;;;35.75;;
33006;SDS011;19361;51.598;7.650;2024-02-28T12:10:49;63.40;;;35.17;;
33006;SDS011;19361;51.598;7.650;2024-02-28T12:15:50;61.63;;;33.53;;
33006;SDS011;19361;51.598;7.650;2024-02-28T12:20:51;58.03;;;31.48;;
33006;SDS011;19361;51.598;7.650;2024-02-28T12:25:51;62.67;;;33.67;;
33006;SDS011;19361;51.598;7.650;2024-02-28T12:30:52;61.67;;;32.55;;
33006;SDS011;19361;51.598;7.650;2024-02-28T12:35:53;61.47;;;33.10;;
33006;SDS011;19361;51.598;7.650;2024-02-28T12:40:54;58.53;;;32.33;;
33006;SDS011;19361;51.598;7.650;2024-02-28T12:45:55;59.33;;;32.60;;
33006;SDS011;19361;51.598;7.650;2024-02-28T12:50:55;55.20;;;30.38;;
33006;SDS011;19361;51.598;7.650;2024-02-28T12:55:56;60.05;;;32.95;;
33006;SDS011;19361;51.598;7.650;2024-02-28T13:00:57;61.97;;;31.33;;
33006;SDS011;19361;51.598;7.650;2024-02-28T13:05:58;58.30;;;31.60;;
33006;SDS011;19361;51.598;7.650;2024-02-28T13:10:59;52.90;;;28.85;;
33006;SDS011;19361;51.598;7.650;2024-02-28T13:15:59;56.40;;;30.73;;
33006;SDS011;19361;51.598;7.650;2024-02-28T13:21:00;56.03;;;31.40;;
33006;SDS011;19361;51.598;7.650;2024-02-28T13:26:01;55.55;;;29.73;;
33006;SDS011;19361;51.598;7.650;2024-02-28T13:31:02;54.50;;;30.38;;
33006;SDS011;19361;51.598;7.650;2024-02-28T13:36:06;52.97;;;29.40;;
33006;SDS011;19361;51.598;7.650;2024-02-28T13:41:07;51.67;;;28.83;;
33006;SDS011;19361;51.598;7.650;2024-02-28T13:46:08;50.25;;;27.50;;
33006;SDS011;19361;51.598;7.650;2024-02-28T13:51:10;53.60;;;26.73;;
33006;SDS011;19361;51.598;7.650;2024-02-28T13:56:11;47.50;;;26.13;;
33006;SDS011;19361;51.598;7.650;2024-02-28T14:01:11;52.85;;;26.30;;
33006;SDS011;19361;51.598;7.650;2024-02-28T14:06:12;47.15;;;26.05;;
33006;SDS011;19361;51.598;7.650;2024-02-28T14:11:14;43.78;;;24.80;;
33006;SDS011;19361;51.598;7.650;2024-02-28T14:16:16;47.03;;;26.02;;
33006;SDS011;19361;51.598;7.650;2024-02-28T14:21:19;49.97;;;26.90;;
33006;SDS011;19361;51.598;7.650;2024-02-28T14:26:20;50.45;;;28.35;;
33006;SDS011;19361;51.598;7.650;2024-02-28T14:31:23;47.90;;;25.98;;
33006;SDS011;19361;51.598;7.650;2024-02-28T14:36:24;50.30;;;28.30;;
33006;SDS011;19361;51.598;7.650;2024-02-28T14:41:25;51.13;;;28.90;;
33006;SDS011;19361;51.598;7.650;2024-02-28T14:46:26;51.05;;;27.55;;
33006;SDS011;19361;51.598;7.650;2024-02-28T14:51:27;49.22;;;26.50;;
33006;SDS011;19361;51.598;7.650;2024-02-28T14:56:29;50.60;;;28.58;;
33006;SDS011;19361;51.598;7.650;2024-02-28T15:01:29;52.22;;;27.70;;
33006;SDS011;19361;51.598;7.650;2024-02-28T15:06:30;48.15;;;27.05;;
33006;SDS011;19361;51.598;7.650;2024-02-28T15:11:31;51.13;;;28.15;;
33006;SDS011;19361;51.598;7.650;2024-02-28T15:16:32;53.88;;;27.67;;
33006;SDS011;19361;51.598;7.650;2024-02-28T15:21:33;48.65;;;27.63;;
33006;SDS011;19361;51.598;7.650;2024-02-28T15:26:33;53.03;;;27.05;;
33006;SDS011;19361;51.598;7.650;2024-02-28T15:31:34;47.67;;;26.27;;
33006;SDS011;19361;51.598;7.650;2024-02-28T15:36:36;52.30;;;27.23;;
33006;SDS011;19361;51.598;7.650;2024-02-28T15:41:37;50.85;;;27.60;;
33006;SDS011;19361;51.598;7.650;2024-02-28T15:46:38;45.88;;;25.95;;
33006;SDS011;19361;51.598;7.650;2024-02-28T15:51:39;45.33;;;24.90;;
33006;SDS011;19361;51.598;7.650;2024-02-28T15:56:39;48.00;;;27.00;;
33006;SDS011;19361;51.598;7.650;2024-02-28T16:01:43;45.47;;;25.45;;
33006;SDS011;19361;51.598;7.650;2024-02-28T16:06:43;49.78;;;26.08;;
33006;SDS011;19361;51.598;7.650;2024-02-28T16:11:44;50.40;;;27.75;;
33006;SDS011;19361;51.598;7.650;2024-02-28T16:16:45;45.75;;;25.40;;
33006;SDS011;19361;51.598;7.650;2024-02-28T16:21:46;48.22;;;26.35;;
33006;SDS011;19361;51.598;7.650;2024-02-28T16:26:49;41.92;;;23.85;;
33006;SDS011;19361;51.598;7.650;2024-02-28T16:31:50;44.28;;;25.02;;
33006;SDS011;19361;51.598;7.650;2024-02-28T16:36:50;44.15;;;24.35;;
33006;SDS011;19361;51.598;7.650;2024-02-28T16:41:51;44.60;;;23.50;;
33006;SDS011;19361;51.598;7.650;2024-02-28T16:46:51;42.95;;;22.70;;
33006;SDS011;19361;51.598;7.650;2024-02-28T16:51:52;46.13;;;25.27;;
33006;SDS011;19361;51.598;7.650;2024-02-28T16:56:53;44.78;;;24.10;;
33006;SDS011;19361;51.598;7.650;2024-02-28T17:01:53;41.00;;;22.13;;
33006;SDS011;19361;51.598;7.650;2024-02-28T17:06:54;51.10;;;27.25;;
33006;SDS011;19361;51.598;7.650;2024-02-28T17:11:57;47.72;;;26.63;;
33006;SDS011;19361;51.598;7.650;2024-02-28T17:16:58;48.67;;;28.25;;
33006;SDS011;19361;51.598;7.650;2024-02-28T17:21:58;48.22;;;27.40;;
33006;SDS011;19361;51.598;7.650;2024-02-28T17:26:59;49.63;;;26.85;;
33006;SDS011;19361;51.598;7.650;2024-02-28T17:32:00;46.33;;;26.20;;
33006;SDS011;19361;51.598;7.650;2024-02-28T17:37:00;49.83;;;26.70;;
33006;SDS011;19361;51.598;7.650;2024-02-28T17:42:02;47.30;;;25.85;;
33006;SDS011;19361;51.598;7.650;2024-02-28T17:47:03;53.42;;;27.02;;
33006;SDS011;19361;51.598;7.650;2024-02-28T17:52:05;49.60;;;28.65;;
33006;SDS011;19361;51.598;7.650;2024-02-28T17:57:05;51.30;;;27.92;;
33006;SDS011;19361;51.598;7.650;2024-02-28T18:02:06;46.53;;;26.23;;
33006;SDS011;19361;51.598;7.650;2024-02-28T18:07:07;47.00;;;26.27;;
33006;SDS011;19361;51.598;7.650;2024-02-28T18:12:08;46.42;;;25.25;;
33006;SDS011;19361;51.598;7.650;2024-02-28T18:17:08;43.65;;;24.80;;
33006;SDS011;19361;51.598;7.650;2024-02-28T18:22:09;45.15;;;25.10;;
33006;SDS011;19361;51.598;7.650;2024-02-28T18:27:10;47.03;;;24.83;;
33006;SDS011;19361;51.598;7.650;2024-02-28T18:32:11;44.70;;;23.35;;
33006;SDS011;19361;51.598;7.650;2024-02-28T18:37:12;42.05;;;23.02;;
33006;SDS011;19361;51.598;7.650;2024-02-28T18:42:13;36.85;;;21.40;;
33006;SDS011;19361;51.598;7.650;2024-02-28T18:47:14;35.28;;;21.08;;
33006;SDS011;19361;51.598;7.650;2024-02-28T18:52:14;37.60;;;20.70;;
33006;SDS011;19361;51.598;7.650;2024-02-28T18:57:15;38.63;;;21.05;;
33006;SDS011;19361;51.598;7.650;2024-02-28T19:02:16;37.53;;;21.13;;
33006;SDS011;19361;51.598;7.650;2024-02-28T19:07:17;36.42;;;21.35;;
33006;SDS011;19361;51.598;7.650;2024-02-28T19:12:18;37.42;;;21.55;;
33006;SDS011;19361;51.598;7.650;2024-02-28T19:17:18;45.95;;;25.02;;
33006;SDS011;19361;51.598;7.650;2024-02-28T19:22:19;42.58;;;22.60;;
33006;SDS011;19361;51.598;7.650;2024-02-28T19:27:22;39.72;;;21.33;;
33006;SDS011;19361;51.598;7.650;2024-02-28T19:32:24;37.72;;;20.70;;
33006;SDS011;19361;51.598;7.650;2024-02-28T19:37:25;37.08;;;19.48;;
33006;SDS011;19361;51.598;7.650;2024-02-28T19:42:25;31.38;;;19.02;;
33006;SDS011;19361;51.598;7.650;2024-02-28T19:47:26;35.00;;;19.70;;
33006;SDS011;19361;51.598;7.650;2024-02-28T19:52:27;36.45;;;20.55;;
33006;SDS011;19361;51.598;7.650;2024-02-28T19:57:27;34.58;;;19.73;;
33006;SDS011;19361;51.598;7.650;2024-02-28T20:02:28;33.97;;;19.77;;
33006;SDS011;19361;51.598;7.650;2024-02-28T20:07:29;34.88;;;20.23;;
33006;SDS011;19361;51.598;7.650;2024-02-28T20:12:29;44.47;;;24.13;;
33006;SDS011;19361;51.598;7.650;2024-02-28T20:17:30;39.15;;;21.30;;
33006;SDS011;19361;51.598;7.650;2024-02-28T20:22:30;35.90;;;20.83;;
33006;SDS011;19361;51.598;7.650;2024-02-28T20:27:31;37.13;;;21.17;;
33006;SDS011;19361;51.598;7.650;2024-02-28T20:32:32;33.92;;;19.75;;
33006;SDS011;19361;51.598;7.650;2024-02-28T20:37:34;35.78;;;19.77;;
33006;SDS011;19361;51.598;7.650;2024-02-28T20:42:38;35.53;;;20.13;;
33006;SDS011;19361;51.598;7.650;2024-02-28T20:47:40;39.70;;;20.58;;
33006;SDS011;19361;51.598;7.650;2024-02-28T20:52:41;48.95;;;24.63;;
33006;SDS011;19361;51.598;7.650;2024-02-28T20:57:42;52.95;;;24.70;;
33006;SDS011;19361;51.598;7.650;2024-02-28T21:02:44;48.83;;;25.30;;
33006;SDS011;19361;51.598;7.650;2024-02-28T21:07:44;48.42;;;25.25;;
33006;SDS011;19361;51.598;7.650;2024-02-28T21:12:46;47.55;;;24.85;;
33006;SDS011;19361;51.598;7.650;2024-02-28T21:17:46;64.95;;;32.15;;
33006;SDS011;19361;51.598;7.650;2024-02-28T21:22:47;58.78;;;29.65;;
33006;SDS011;19361;51.598;7.650;2024-02-28T21:27:48;51.85;;;27.35;;
33006;SDS011;19361;51.598;7.650;2024-02-28T21:32:48;61.17;;;28.67;;
33006;SDS011;19361;51.598;7.650;2024-02-28T21:37:49;49.53;;;26.42;;
33006;SDS011;19361;51.598;7.650;2024-02-28T21:42:50;53.55;;;28.38;;
33006;SDS011;19361;51.598;7.650;2024-02-28T21:47:51;51.92;;;26.83;;
33006;SDS011;19361;51.598;7.650;2024-02-28T21:52:54;47.00;;;24.52;;
33006;SDS011;19361;51.598;7.650;2024-02-28T21:57:56;45.85;;;24.88;;
33006;SDS011;19361;51.598;7.650;2024-02-28T22:02:57;52.00;;;26.33;;
33006;SDS011;19361;51.598;7.650;2024-02-28T22:07:58;45.20;;;23.98;;
33006;SDS011;19361;51.598;7.650;2024-02-28T22:12:59;42.65;;;23.95;;
33006;SDS011;19361;51.598;7.650;2024-02-28T22:17:59;38.67;;;21.67;;
33006;SDS011;19361;51.598;7.650;2024-02-28T22:23:00;32.65;;;19.15;;
33006;SDS011;19361;51.598;7.650;2024-02-28T22:28:01;28.88;;;15.75;;
33006;SDS011;19361;51.598;7.650;2024-02-28T22:33:01;27.30;;;15.15;;
33006;SDS011;19361;51.598;7.650;2024-02-28T22:38:02;24.70;;;14.40;;
33006;SDS011;19361;51.598;7.650;2024-02-28T22:43:03;25.23;;;15.00;;
33006;SDS011;19361;51.598;7.650;2024-02-28T22:48:05;21.88;;;13.80;;
33006;SDS011;19361;51.598;7.650;2024-02-28T22:53:06;21.27;;;13.70;;
33006;SDS011;19361;51.598;7.650;2024-02-28T22:58:07;23.85;;;13.85;;
33006;SDS011;19361;51.598;7.650;2024-02-28T23:03:08;20.88;;;12.93;;
33006;SDS011;19361;51.598;7.650;2024-02-28T23:08:08;23.73;;;14.10;;
33006;SDS011;19361;51.598;7.650;2024-02-28T23:13:09;19.95;;;12.32;;
33006;SDS011;19361;51.598;7.650;2024-02-28T23:18:10;20.92;;;12.23;;
33006;SDS011;19361;51.598;7.650;2024-02-28T23:23:10;20.92;;;12.65;;
33006;SDS011;19361;51.598;7.650;2024-02-28T23:28:11;22.02;;;12.48;;
33006;SDS011;19361;51.598;7.650;2024-02-28T23:33:12;20.50;;;12.55;;
33006;SDS011;19361;51.598;7.650;2024-02-28T23:38:13;17.60;;;11.90;;
33006;SDS011;19361;51.598;7.650;2024-02-28T23:43:13;18.25;;;12.05;;
33006;SDS011;19361;51.598;7.650;2024-02-28T23:48:14;21.00;;;12.85;;
33006;SDS011;19361;51.598;7.650;2024-02-28T23:53:14;19.25;;;11.82;;
33006;SDS011;19361;51.598;7.650;2024-02-28T23:58:15;23.48;;;12.75;;
